Time;durP1;ratioP1;P1;durP2;ratioP2;P2;SDS_P1;SDS_P2;PMS_P1;PMS_P2;Temp;Humidity;BMP_temperature;BMP_pressure;BME280_temperature;BME280_humidity;BME280_pressure;Samples;Min_cycle;Max_cycle;Signal;HPM_P1;HPM_P2
2021/10/25 00:00:34;;;;;;;4.85;1.75;;;;;;;17.23;67.94;102522.41;144994;650;5002;-79
2021/10/25 00:03:01;;;;;;;2.58;1.60;;;;;;;17.20;68.22;102523.19;144994;575;5002;-79
2021/10/25 00:05:30;;;;;;;5.05;2.00;;;;;;;17.24;67.90;102534.66;144994;565;5002;-80
2021/10/25 00:07:57;;;;;;;2.85;1.77;;;;;;;17.30;67.65;102536.59;144994;563;5002;-81
2021/10/25 00:10:24;;;;;;;3.33;1.87;;;;;;;17.31;67.60;102541.91;144994;641;5002;-80
2021/10/25 00:12:51;;;;;;;4.07;2.00;;;;;;;17.30;67.54;102540.09;144994;585;5002;-80
2021/10/25 00:15:17;;;;;;;3.62;2.00;;;;;;;17.31;67.53;102538.41;144994;587;5002;-80
2021/10/25 00:17:44;;;;;;;3.33;1.80;;;;;;;17.30;67.43;102533.97;144994;579;5002;-80
2021/10/25 00:20:13;;;;;;;5.37;2.00;;;;;;;17.25;67.66;102525.97;144994;566;5002;-78
2021/10/25 00:22:41;;;;;;;3.95;1.80;;;;;;;17.28;67.47;102528.69;144994;624;5002;-79
2021/10/25 00:25:08;;;;;;;2.60;1.75;;;;;;;17.30;67.22;102528.72;144994;586;5002;-79
2021/10/25 00:27:34;;;;;;;2.85;1.92;;;;;;;17.31;67.15;102528.78;144994;567;5002;-80
2021/10/25 00:30:02;;;;;;;4.10;2.10;;;;;;;17.33;67.30;102524.44;144994;563;5002;-81
2021/10/25 00:32:28;;;;;;;4.28;1.87;;;;;;;17.30;67.16;102518.22;144994;579;5002;-81
2021/10/25 00:34:55;;;;;;;3.40;1.50;;;;;;;17.21;67.47;102518.81;144994;583;5002;-76
2021/10/25 00:37:21;;;;;;;2.85;1.40;;;;;;;17.22;67.03;102515.34;144994;678;5002;-79
2021/10/25 00:39:48;;;;;;;3.90;1.60;;;;;;;17.07;67.66;102512.25;144994;667;5002;-79
2021/10/25 00:42:14;;;;;;;3.58;1.70;;;;;;;17.07;68.55;102507.00;144994;572;5002;-79
2021/10/25 00:44:41;;;;;;;3.47;1.33;;;;;;;17.05;67.88;102512.19;144994;603;5002;-79
2021/10/25 00:47:08;;;;;;;3.87;1.60;;;;;;;17.00;68.11;102530.41;144994;667;5002;-79
2021/10/25 00:49:34;;;;;;;3.15;1.37;;;;;;;16.97;68.20;102529.44;144994;585;5002;-79
2021/10/25 00:52:02;;;;;;;3.45;1.52;;;;;;;16.98;67.78;102531.22;144994;566;5002;-80
2021/10/25 00:54:32;;;;;;;2.15;1.33;;;;;;;17.01;67.60;102524.34;144994;649;5002;-80
2021/10/25 00:56:59;;;;;;;4.50;1.48;;;;;;;16.96;67.48;102523.31;144994;573;5002;-80
2021/10/25 00:59:25;;;;;;;4.40;1.37;;;;;;;16.91;68.24;102529.22;144994;576;5002;-79
2021/10/25 01:01:52;;;;;;;4.43;1.50;;;;;;;16.92;67.60;102531.03;144994;565;5002;-80
2021/10/25 01:04:20;;;;;;;2.45;1.30;;;;;;;16.91;67.97;102535.41;144994;569;5002;-80
2021/10/25 01:06:48;;;;;;;3.70;1.10;;;;;;;16.96;67.63;102532.91;144994;609;5002;-81
2021/10/25 01:09:16;;;;;;;2.00;1.15;;;;;;;17.01;67.67;102539.19;144994;574;5002;-79
2021/10/25 01:11:42;;;;;;;1.55;1.02;;;;;;;16.94;67.75;102545.06;144994;685;5002;-80
2021/10/25 01:14:09;;;;;;;1.50;0.90;;;;;;;16.91;68.03;102532.78;144994;590;5002;-80
2021/10/25 01:16:36;;;;;;;1.80;1.17;;;;;;;16.88;67.75;102530.03;144994;589;5002;-81
2021/10/25 01:19:04;;;;;;;1.65;1.00;;;;;;;16.80;67.44;102532.38;144994;641;5002;-81
2021/10/25 01:21:30;;;;;;;1.58;0.85;;;;;;;16.82;67.65;102530.69;144994;598;5002;-79
2021/10/25 01:23:57;;;;;;;1.90;0.98;;;;;;;16.74;67.75;102524.31;144994;607;5002;-80
2021/10/25 01:26:23;;;;;;;4.32;0.93;;;;;;;16.66;67.66;102528.41;144994;688;5002;-80
2021/10/25 01:28:53;;;;;;;2.15;0.90;;;;;;;16.66;67.93;102538.91;144994;563;5002;-80
2021/10/25 01:31:21;;;;;;;2.75;1.00;;;;;;;16.68;67.46;102542.44;144994;665;5002;-80
2021/10/25 01:33:50;;;;;;;2.92;0.88;;;;;;;16.69;67.87;102545.13;144994;578;5002;-81
2021/10/25 01:36:17;;;;;;;1.83;1.12;;;;;;;16.76;67.55;102540.09;144994;589;5002;-80
2021/10/25 01:38:44;;;;;;;2.80;1.37;;;;;;;16.80;67.68;102539.38;144994;746;5002;-81
2021/10/25 01:41:11;;;;;;;1.62;1.10;;;;;;;16.81;67.65;102542.03;144994;629;5002;-81
2021/10/25 01:43:39;;;;;;;3.15;1.20;;;;;;;16.80;67.97;102548.13;144994;602;5002;-79
2021/10/25 01:46:06;;;;;;;3.95;1.15;;;;;;;16.82;67.53;102548.16;144993;644;5002;-80
2021/10/25 01:48:33;;;;;;;2.40;0.98;;;;;;;16.81;67.06;102549.00;144994;582;5002;-80
2021/10/25 01:50:59;;;;;;;1.92;1.12;;;;;;;16.82;67.33;102550.78;144994;588;5002;-79
2021/10/25 01:53:26;;;;;;;2.58;1.23;;;;;;;16.85;67.62;102550.88;144994;737;5002;-80
2021/10/25 01:55:59;;;;;;;2.33;1.27;;;;;;;16.87;66.79;102551.84;144994;672;5002;-80
2021/10/25 01:58:26;;;;;;;2.62;1.05;;;;;;;16.85;66.82;102550.88;144994;594;5016;-80
2021/10/25 02:00:53;;;;;;;2.12;1.20;;;;;;;16.85;66.87;102553.50;144994;574;5002;-81
2021/10/25 02:03:21;;;;;;;2.15;1.12;;;;;;;16.87;67.29;102562.34;144993;630;5002;-79
2021/10/25 02:05:48;;;;;;;2.83;1.30;;;;;;;16.91;67.11;102561.63;144994;571;5002;-81
2021/10/25 02:08:14;;;;;;;3.55;1.08;;;;;;;16.97;66.88;102559.22;144994;697;4569;-80
2021/10/25 02:10:41;;;;;;;2.00;1.17;;;;;;;17.02;66.72;102549.75;144994;687;4572;-81
2021/10/25 02:13:11;;;;;;;2.45;1.20;;;;;;;17.08;66.56;102558.66;144992;587;6002;-79
2021/10/25 02:15:37;;;;;;;2.17;1.10;;;;;;;17.12;66.38;102550.03;144992;704;6002;-79
2021/10/25 02:18:04;;;;;;;2.28;1.23;;;;;;;17.11;66.21;102529.88;144992;601;6002;-79
2021/10/25 02:20:31;;;;;;;2.12;1.17;;;;;;;17.13;65.97;102529.09;144992;627;6002;-80
2021/10/25 02:22:57;;;;;;;2.58;1.17;;;;;;;17.08;65.80;102541.16;144992;565;6002;-78
2021/10/25 02:25:24;;;;;;;3.85;1.27;;;;;;;16.98;66.10;102534.72;144992;587;6002;-79
2021/10/25 02:27:51;;;;;;;4.55;1.48;;;;;;;16.89;66.41;102537.06;144992;679;6002;-80
2021/10/25 02:30:21;;;;;;;3.50;1.37;;;;;;;16.84;65.94;102549.09;144992;613;6002;-79
2021/10/25 02:32:48;;;;;;;4.00;1.58;;;;;;;16.89;66.00;102555.41;144992;590;6002;-79
2021/10/25 02:35:15;;;;;;;2.92;1.50;;;;;;;16.89;66.12;102555.41;144992;573;6002;-79
2021/10/25 02:37:41;;;;;;;3.08;1.40;;;;;;;16.78;63.95;102556.75;144992;594;6002;-80
2021/10/25 02:40:09;;;;;;;2.10;1.37;;;;;;;16.72;66.15;102560.09;144992;604;6002;-81
2021/10/25 02:42:36;;;;;;;5.00;1.58;;;;;;;16.61;63.38;102551.84;144992;623;6002;-81
2021/10/25 02:45:03;;;;;;;3.67;1.60;;;;;;;16.58;65.95;102551.75;144992;600;6003;-80
2021/10/25 02:47:31;;;;;;;2.65;1.40;;;;;;;16.63;65.79;102555.41;144992;569;6002;-80
2021/10/25 02:49:58;;;;;;;3.28;1.20;;;;;;;16.64;65.90;102551.94;144992;563;6002;-79
2021/10/25 02:52:25;;;;;;;2.72;1.30;;;;;;;16.45;66.07;102553.06;144992;633;6003;-79
2021/10/25 02:54:51;;;;;;;3.08;1.20;;;;;;;16.41;65.98;102556.38;144992;596;6002;-81
2021/10/25 02:57:18;;;;;;;2.70;1.30;;;;;;;16.41;65.75;102551.16;144992;563;6002;-79
2021/10/25 02:59:45;;;;;;;4.18;1.58;;;;;;;16.43;65.39;102552.13;144992;693;6002;-79
2021/10/25 03:02:11;;;;;;;3.60;1.50;;;;;;;16.41;65.24;102558.13;144992;608;6002;-79
2021/10/25 03:04:37;;;;;;;4.32;1.58;;;;;;;16.35;65.39;102557.91;144991;574;6002;-80
2021/10/25 03:07:04;;;;;;;2.72;1.40;;;;;;;16.38;65.69;102565.87;144992;584;6002;-80
2021/10/25 03:09:30;;;;;;;3.40;1.35;;;;;;;16.42;65.48;102557.31;144992;598;6002;-80
2021/10/25 03:11:57;;;;;;;4.75;1.95;;;;;;;16.44;65.45;102559.13;144992;589;6002;-80
2021/10/25 03:14:23;;;;;;;4.28;1.50;;;;;;;16.44;65.13;102551.25;144992;590;6002;-79
2021/10/25 03:16:50;;;;;;;5.95;1.85;;;;;;;16.39;65.20;102562.44;144991;569;6002;-79
2021/10/25 03:19:16;;;;;;;3.78;1.37;;;;;;;16.44;64.73;102566.09;144992;571;6002;-78
2021/10/25 03:21:44;;;;;;;3.67;1.23;;;;;;;16.32;64.67;102558.69;144992;586;6002;-81
2021/10/25 03:24:11;;;;;;;3.60;1.35;;;;;;;16.30;64.96;102553.41;144992;597;6002;-80
2021/10/25 03:26:37;;;;;;;5.80;1.37;;;;;;;16.30;65.11;102552.50;144992;605;6002;-79
2021/10/25 03:29:04;;;;;;;5.87;1.37;;;;;;;16.33;65.04;102548.25;144992;627;6002;-80
2021/10/25 03:31:30;;;;;;;3.05;1.33;;;;;;;16.37;64.62;102543.13;144992;586;6002;-80
2021/10/25 03:33:57;;;;;;;2.40;1.20;;;;;;;16.38;64.11;102552.78;144992;656;6002;-78
2021/10/25 03:36:26;;;;;;;4.15;1.42;;;;;;;16.35;63.31;102563.16;144992;579;6002;-80
2021/10/25 03:38:54;;;;;;;3.15;1.37;;;;;;;16.31;64.54;102552.56;144992;583;6002;-81
2021/10/25 03:44:12;;;;;;;3.83;1.50;;;;;;;16.12;64.86;102552.75;144992;593;6005;-80
2021/10/25 03:49:59;;;;;;;2.90;1.42;;;;;;;16.30;63.88;102549.88;144992;578;6002;-80
2021/10/25 03:52:35;;;;;;;4.20;1.40;;;;;;;16.26;64.03;102554.12;144992;570;6003;-80
2021/10/25 04:01:10;;;;;;;2.95;1.35;;;;;;;16.32;64.42;102563.91;144992;574;6002;-79
2021/10/25 04:28:37;;;;;;;3.40;1.80;;;;;;;16.46;64.20;102572.28;144992;588;6002;-81
2021/10/25 04:31:04;;;;;;;4.28;1.85;;;;;;;16.45;64.28;102579.25;144992;570;6002;-81
2021/10/25 04:33:31;;;;;;;7.68;1.90;;;;;;;16.48;64.76;102576.75;144992;595;6002;-80
2021/10/25 04:35:58;;;;;;;4.37;1.70;;;;;;;16.55;64.77;102574.34;144992;618;6002;-81
2021/10/25 04:38:27;;;;;;;4.62;1.70;;;;;;;16.64;64.04;102580.78;144992;606;6002;-81
2021/10/25 04:40:54;;;;;;;4.32;1.80;;;;;;;16.79;64.30;102580.41;144992;572;6002;-79
2021/10/25 04:43:23;;;;;;;5.50;2.08;;;;;;;16.93;64.20;102578.28;144992;611;6002;-81
2021/10/25 04:45:51;;;;;;;9.68;2.10;;;;;;;16.99;63.31;102570.62;144992;599;6002;-80
2021/10/25 04:48:19;;;;;;;6.35;1.90;;;;;;;17.08;63.14;102580.53;144992;606;6002;-80
2021/10/25 04:50:46;;;;;;;5.12;1.70;;;;;;;17.14;63.12;102582.47;144992;590;6002;-80
2021/10/25 04:53:13;;;;;;;6.00;1.90;;;;;;;17.19;62.74;102589.63;144992;615;6002;-81
2021/10/25 04:55:39;;;;;;;6.87;2.00;;;;;;;17.15;62.77;102586.88;144992;572;6002;-80
2021/10/25 04:58:06;;;;;;;6.65;2.30;;;;;;;17.11;62.91;102585.00;144992;564;6002;-79
2021/10/25 05:00:33;;;;;;;4.62;2.40;;;;;;;17.12;62.80;102589.41;144992;632;6002;-79
2021/10/25 05:03:00;;;;;;;6.62;2.30;;;;;;;17.15;62.39;102597.38;144992;635;6002;-81
2021/10/25 05:05:28;;;;;;;3.53;2.28;;;;;;;17.14;62.09;102592.97;144992;599;6002;-81
2021/10/25 05:07:54;;;;;;;9.18;2.53;;;;;;;17.08;62.21;102601.50;144991;585;6002;-81
2021/10/25 05:10:25;;;;;;;5.55;2.40;;;;;;;17.02;62.73;102615.34;144992;631;6002;-80
2021/10/25 05:12:51;;;;;;;6.03;2.42;;;;;;;17.00;62.58;102613.50;144992;581;6002;-80
2021/10/25 05:15:18;;;;;;;5.25;2.25;;;;;;;16.96;62.02;102616.87;144992;583;6002;-82
2021/10/25 05:17:45;;;;;;;4.10;1.58;;;;;;;16.85;60.76;102619.09;144992;570;6002;-82
2021/10/25 05:20:11;;;;;;;7.53;2.58;;;;;;;16.47;59.97;102613.41;144992;608;6002;-82
2021/10/25 05:22:38;;;;;;;3.85;1.20;;;;;;;16.31;59.09;102601.47;144992;583;6002;-82
2021/10/25 05:25:05;;;;;;;4.57;1.40;;;;;;;16.29;61.66;102606.66;144992;596;6002;-82
2021/10/25 05:27:32;;;;;;;4.87;1.85;;;;;;;16.28;61.87;102615.34;144992;585;6002;-82
2021/10/25 05:29:58;;;;;;;5.72;1.98;;;;;;;16.29;61.11;102622.38;144992;574;6002;-83
2021/10/25 05:32:25;;;;;;;5.62;1.73;;;;;;;16.23;59.31;102616.03;144992;602;6002;-82
2021/10/25 05:34:52;;;;;;;4.12;1.85;;;;;;;16.27;61.20;102618.81;144992;594;6002;-81
2021/10/25 05:37:20;;;;;;;5.93;1.98;;;;;;;16.25;59.91;102614.34;144992;627;6002;-82
2021/10/25 05:39:46;;;;;;;5.18;2.22;;;;;;;16.18;60.82;102628.97;144992;607;6002;-83
2021/10/25 05:42:13;;;;;;;8.07;2.10;;;;;;;16.25;61.49;102625.72;144992;577;6002;-83
2021/10/25 05:44:40;;;;;;;9.93;2.67;;;;;;;16.39;60.53;102630.59;144992;571;6002;-83
2021/10/25 05:47:07;;;;;;;4.85;1.90;;;;;;;16.25;58.59;102635.31;144992;573;6002;-83
2021/10/25 05:49:34;;;;;;;4.12;1.50;;;;;;;16.28;60.87;102644.16;144992;574;6002;-81
2021/10/25 05:52:02;;;;;;;4.03;1.17;;;;;;;16.14;58.61;102648.88;144992;571;6002;-81
2021/10/25 05:54:28;;;;;;;4.35;1.42;;;;;;;16.13;56.29;102654.97;144992;574;6002;-83
2021/10/25 05:56:55;;;;;;;3.50;1.30;;;;;;;16.14;59.69;102666.34;144992;589;6002;-83
2021/10/25 05:59:25;;;;;;;2.92;1.02;;;;;;;16.16;59.74;102690.87;144992;577;6002;-83
2021/10/25 06:02:06;;;;;;;3.67;1.30;;;;;;;16.13;57.27;102694.28;144992;583;6002;-84
2021/10/25 06:04:34;;;;;;;9.55;1.35;;;;;;;15.92;57.71;102694.34;144992;671;6002;-83
2021/10/25 06:07:00;;;;;;;5.32;1.30;;;;;;;15.91;56.44;102692.56;144992;656;6002;-83
2021/10/25 06:09:28;;;;;;;3.58;1.70;;;;;;;15.99;59.19;102705.03;144992;630;6002;-83
2021/10/25 06:11:55;;;;;;;13.20;1.87;;;;;;;15.83;55.49;102690.44;144992;585;6002;-83
2021/10/25 06:14:29;;;;;;;5.22;1.30;;;;;;;15.77;53.62;102678.91;144992;591;6002;-83
2021/10/25 06:16:59;;;;;;;5.32;1.42;;;;;;;15.77;55.14;102667.56;144992;577;6002;-85
2021/10/25 06:19:26;;;;;;;4.85;1.48;;;;;;;15.69;56.21;102672.44;144992;649;6002;-82
2021/10/25 06:21:53;;;;;;;7.37;1.60;;;;;;;15.71;57.80;102678.63;144992;575;6002;-83
2021/10/25 06:24:20;;;;;;;4.10;1.25;;;;;;;15.72;57.34;102690.91;144992;675;6002;-83
2021/10/25 06:26:49;;;;;;;7.78;1.30;;;;;;;15.77;55.12;102684.16;144992;679;6002;-83
2021/10/25 06:29:17;;;;;;;5.15;1.30;;;;;;;15.81;55.54;102703.47;144991;591;6002;-84
2021/10/25 06:31:44;;;;;;;3.22;1.08;;;;;;;15.99;56.58;102682.38;144992;604;6002;-82
2021/10/25 06:34:20;;;;;;;6.20;1.60;;;;;;;16.10;55.91;102680.19;144992;592;6002;-82
2021/10/25 06:36:52;;;;;;;2.72;1.12;;;;;;;16.02;55.04;102699.91;144992;613;6002;-84
2021/10/25 06:39:39;;;;;;;5.45;1.50;;;;;;;15.96;53.71;102695.34;144992;624;6002;-83
2021/10/25 06:42:07;;;;;;;3.70;1.40;;;;;;;15.99;52.69;102702.41;144992;640;6002;-84
2021/10/25 06:44:55;;;;;;;3.60;1.35;;;;;;;15.84;50.75;102694.87;144992;580;6002;-83
2021/10/25 06:47:25;;;;;;;3.80;1.40;;;;;;;15.88;54.76;102695.06;144992;579;6002;-83
2021/10/25 06:49:51;;;;;;;5.25;1.45;;;;;;;15.80;51.33;102696.47;144992;607;6002;-83
2021/10/25 06:52:18;;;;;;;5.40;1.62;;;;;;;15.78;50.78;102700.78;144992;653;6002;-83
2021/10/25 06:54:45;;;;;;;3.97;1.45;;;;;;;15.82;52.99;102701.78;144992;611;6002;-84
2021/10/25 06:57:16;;;;;;;9.93;1.80;;;;;;;15.86;51.85;102699.34;144992;666;6002;-84
2021/10/25 06:59:42;;;;;;;4.87;1.42;;;;;;;15.87;52.04;102711.59;144991;599;6002;-83
2021/10/25 07:02:09;;;;;;;6.43;1.20;;;;;;;15.89;53.92;102709.03;144992;728;6002;-83
2021/10/25 07:04:36;;;;;;;7.28;1.80;;;;;;;15.91;53.98;102704.78;144992;638;6002;-84
2021/10/25 07:07:05;;;;;;;6.45;1.60;;;;;;;15.82;50.50;102702.66;144992;567;6002;-83
2021/10/25 07:09:31;;;;;;;4.97;1.65;;;;;;;15.85;53.95;102702.78;144991;608;6002;-83
2021/10/25 07:11:58;;;;;;;7.78;1.45;;;;;;;15.79;53.15;102713.00;144992;579;6002;-82
2021/10/25 07:14:33;;;;;;;5.00;1.80;;;;;;;15.79;50.69;102713.00;144992;629;6002;-83
2021/10/25 07:17:13;;;;;;;5.62;1.65;;;;;;;15.86;52.40;102712.44;144992;591;6002;-83
2021/10/25 07:19:59;;;;;;;5.30;1.95;;;;;;;15.94;54.33;102718.88;144992;585;6002;-83
2021/10/25 07:23:01;;;;;;;3.42;1.30;;;;;;;15.94;54.05;102718.88;144992;625;6002;-83
2021/10/25 08:09:47;;;;;;;3.72;1.30;;;;;;;16.30;53.79;102738.56;144992;695;6002;-83
2021/10/25 08:12:17;;;;;;;3.92;1.60;;;;;;;16.11;49.24;102732.63;144992;706;6002;-82
2021/10/25 08:15:06;;;;;;;4.68;1.70;;;;;;;16.04;51.88;102733.22;144992;749;6002;-83
2021/10/25 08:17:45;;;;;;;5.40;1.60;;;;;;;16.08;54.10;102731.59;144992;574;6002;-82
2021/10/25 08:20:12;;;;;;;5.75;1.60;;;;;;;16.22;54.21;102737.38;144992;754;6002;-83
2021/10/25 08:22:40;;;;;;;5.28;1.55;;;;;;;16.28;53.76;102735.00;144992;591;6002;-82
2021/10/25 08:25:07;;;;;;;6.43;1.80;;;;;;;16.40;53.48;102737.19;144992;726;6002;-83
2021/10/25 08:27:35;;;;;;;4.75;1.80;;;;;;;16.44;53.22;102737.38;144993;604;6002;-83
2021/10/25 08:30:03;;;;;;;5.80;1.30;;;;;;;16.36;52.06;102732.69;144993;574;6002;-83
2021/10/25 08:35:30;;;;;;;5.55;1.67;;;;;;;16.22;53.05;102733.03;144993;648;6000;-84
2021/10/25 08:40:41;;;;;;;4.20;1.33;;;;;;;16.13;50.65;102727.47;144993;655;6000;-82
2021/10/25 08:43:09;;;;;;;9.18;1.67;;;;;;;16.22;53.03;102727.78;144993;663;6002;-82
2021/10/25 08:45:36;;;;;;;6.70;1.33;;;;;;;16.30;52.44;102733.34;144993;595;6002;-82
2021/10/25 08:48:07;;;;;;;6.50;1.40;;;;;;;16.35;52.49;102734.38;144993;600;6002;-82
2021/10/25 08:50:35;;;;;;;4.90;1.50;;;;;;;16.41;52.36;102747.72;144992;589;6002;-83
2021/10/25 08:53:07;;;;;;;6.25;1.80;;;;;;;16.51;52.46;102741.09;144993;601;6002;-83
2021/10/25 08:55:35;;;;;;;4.10;1.40;;;;;;;16.59;52.60;102741.41;144993;596;6002;-83
2021/10/25 08:58:03;;;;;;;6.68;2.20;;;;;;;16.64;52.42;102740.75;144993;662;6002;-81
2021/10/25 09:00:49;;;;;;;5.43;2.33;;;;;;;16.71;51.66;102726.13;144992;585;6002;-84
2021/10/25 09:03:17;;;;;;;5.07;1.75;;;;;;;16.77;51.78;102714.97;144992;566;6002;-82
2021/10/25 09:06:00;;;;;;;4.18;1.55;;;;;;;16.83;51.20;102733.53;144992;601;6002;-82
2021/10/25 09:08:27;;;;;;;4.43;1.60;;;;;;;16.78;51.00;102743.88;144992;599;6002;-85
2021/10/25 09:10:54;;;;;;;4.15;1.37;;;;;;;16.73;51.25;102748.03;144992;577;6002;-83
2021/10/25 09:13:24;;;;;;;5.60;3.03;;;;;;;16.50;49.58;102737.59;144993;570;6002;-83
2021/10/25 09:15:56;;;;;;;6.78;2.05;;;;;;;16.41;50.30;102734.63;144993;589;6002;-82
2021/10/25 09:18:30;;;;;;;5.62;1.60;;;;;;;16.29;50.96;102735.06;144993;602;6002;-86
2021/10/25 09:21:02;;;;;;;5.43;1.80;;;;;;;16.26;51.59;102742.81;144993;564;6002;-84
2021/10/25 09:23:32;;;;;;;5.50;1.67;;;;;;;16.25;50.15;102743.62;144993;578;6002;-80
2021/10/25 09:26:05;;;;;;;5.55;1.67;;;;;;;16.30;51.74;102738.56;144993;564;6002;-83
2021/10/25 09:28:45;;;;;;;4.37;1.98;;;;;;;16.37;50.13;102727.50;144993;687;6002;-84
2021/10/25 09:31:18;;;;;;;8.35;3.97;;;;;;;16.27;47.88;102728.88;144993;570;6002;-83
2021/10/25 09:33:57;;;;;;;5.05;1.80;;;;;;;16.14;49.38;102727.50;144993;649;6002;-82
2021/10/25 09:36:31;;;;;;;6.18;2.42;;;;;;;16.05;49.64;102718.37;144993;564;6002;-83
2021/10/25 09:39:15;;;;;;;4.65;1.55;;;;;;;15.98;49.71;102714.63;144993;575;6002;-81
2021/10/25 09:50:11;;;;;;;4.07;1.55;;;;;;;16.10;50.65;102709.00;144993;573;6004;-81
2021/10/25 09:52:39;;;;;;;4.72;1.25;;;;;;;16.14;50.36;102701.28;144993;657;6002;-80
2021/10/25 09:55:15;;;;;;;5.00;1.40;;;;;;;16.09;50.83;102705.47;144993;563;6002;-79
2021/10/25 10:00:28;;;;;;;5.15;1.40;;;;;;;16.16;50.00;102711.81;144993;638;6004;-80
2021/10/25 10:02:54;;;;;;;4.43;1.45;;;;;;;16.20;49.92;102716.38;144993;577;6002;-80
2021/10/25 10:05:24;;;;;;;3.12;1.30;;;;;;;16.25;50.71;102719.16;144994;725;5002;-78
2021/10/25 10:07:51;;;;;;;7.47;2.10;;;;;;;16.32;50.90;102715.94;144994;585;5002;-80
2021/10/25 10:10:22;;;;;;;5.50;1.85;;;;;;;16.35;50.13;102696.81;144994;565;5002;-80
2021/10/25 10:12:51;;;;;;;5.10;1.48;;;;;;;16.31;49.68;102706.31;144994;569;5002;-80
2021/10/25 10:15:20;;;;;;;4.20;1.40;;;;;;;16.12;49.26;102695.09;144994;574;5002;-80
2021/10/25 10:17:59;;;;;;;4.68;1.33;;;;;;;16.00;48.95;102705.09;144994;596;5002;-81
2021/10/25 10:20:30;;;;;;;4.03;1.20;;;;;;;16.10;49.86;102707.25;144994;602;5002;-81
2021/10/25 10:23:00;;;;;;;4.03;1.10;;;;;;;16.03;50.00;102693.88;144994;588;5002;-82
2021/10/25 10:25:34;;;;;;;5.72;1.60;;;;;;;16.12;50.66;102694.22;144994;649;5002;-79
2021/10/25 10:28:30;;;;;;;4.43;1.40;;;;;;;16.15;49.87;102689.09;144994;602;5002;-79
2021/10/25 10:31:34;;;;;;;7.20;4.78;;;;;;;16.26;50.42;102694.75;144994;625;5002;-79
2021/10/25 10:34:12;;;;;;;5.22;1.90;;;;;;;16.24;50.35;102673.72;144994;567;5004;-80
2021/10/25 10:36:51;;;;;;;6.15;2.15;;;;;;;16.27;50.60;102672.94;144994;576;5004;-79
2021/10/25 10:39:20;;;;;;;4.90;1.58;;;;;;;16.39;50.10;102680.38;144994;578;5004;-81
2021/10/25 10:42:06;;;;;;;3.55;1.60;;;;;;;16.43;47.90;102659.59;144994;579;5005;-79
2021/10/25 10:44:32;;;;;;;25.88;14.70;;;;;;;16.29;49.30;102663.44;144994;579;5002;-81
2021/10/25 10:47:02;;;;;;;5.50;2.22;;;;;;;16.28;48.62;102659.91;144994;574;5002;-79
2021/10/25 10:49:54;;;;;;;3.05;1.17;;;;;;;16.30;49.23;102645.12;144994;614;5002;-80
2021/10/25 10:55:26;;;;;;;4.32;2.17;;;;;;;16.46;48.33;102643.97;144994;737;5002;-84
2021/10/25 10:58:13;;;;;;;;;;;;;;;16.60;49.43;102644.44;144998;912;5002;-81
2021/10/25 11:00:44;;;;;;;6.75;2.50;;;;;;;16.77;48.87;102631.94;144998;590;5002;-83
2021/10/25 11:03:29;;;;;;;5.72;1.20;;;;;;;17.04;48.70;102636.37;144994;585;5002;-80
2021/10/25 11:06:09;;;;;;;4.15;1.77;;;;;;;17.27;47.50;102624.00;144994;591;5004;-80
2021/10/25 11:08:47;;;;;;;4.07;1.30;;;;;;;17.46;48.33;102624.59;144994;605;5004;-82
2021/10/25 11:11:21;;;;;;;4.93;1.33;;;;;;;17.61;48.17;102619.84;144994;568;5004;-80
2021/10/25 11:14:07;;;;;;;7.07;1.60;;;;;;;17.90;47.47;102617.22;144994;595;5004;-81
2021/10/25 11:16:41;;;;;;;2.80;1.30;;;;;;;18.06;47.60;102629.97;144993;603;5004;-81
2021/10/25 11:19:09;;;;;;;6.50;2.08;;;;;;;18.05;46.75;102620.28;144994;711;5002;-82
2021/10/25 11:21:45;;;;;;;3.55;1.27;;;;;;;17.99;47.06;102619.22;144994;657;5002;-80
2021/10/25 11:24:20;;;;;;;3.05;1.40;;;;;;;18.03;47.14;102607.97;144994;613;5002;-81
2021/10/25 11:26:55;;;;;;;18.48;11.15;;;;;;;18.04;47.27;102614.97;144994;570;5002;-80
2021/10/25 11:29:27;;;;;;;6.20;1.50;;;;;;;18.15;44.27;102607.41;144994;587;5002;-81
2021/10/25 11:32:06;;;;;;;20.60;13.13;;;;;;;18.12;45.67;102602.97;144994;571;5002;-83
2021/10/25 11:34:44;;;;;;;4.30;1.50;;;;;;;17.85;45.25;102590.78;144994;633;5002;-81
2021/10/25 11:37:20;;;;;;;4.37;1.90;;;;;;;17.62;45.94;102592.72;144994;592;5002;-81
2021/10/25 11:40:04;;;;;;;5.57;1.50;;;;;;;17.59;46.69;102585.66;144994;600;5002;-83
2021/10/25 11:42:33;;;;;;;4.97;2.13;;;;;;;17.47;46.11;102587.00;144994;631;5002;-80
2021/10/25 11:45:06;;;;;;;7.25;2.40;;;;;;;17.38;45.88;102587.59;144994;587;5004;-81
2021/10/25 11:47:36;;;;;;;11.32;6.53;;;;;;;17.31;45.87;102596.13;144994;656;5002;-80
2021/10/25 11:50:26;;;;;;;4.65;2.55;;;;;;;17.37;46.64;102598.94;144994;570;5002;-81
2021/10/25 11:53:13;;;;;;;6.85;2.35;;;;;;;17.39;46.22;102594.62;144994;627;5004;-81
2021/10/25 11:55:41;;;;;;;7.80;3.83;;;;;;;17.30;45.95;102591.72;144994;590;5003;-83
2021/10/25 11:58:13;;;;;;;5.35;2.40;;;;;;;17.47;46.85;102592.25;144994;640;5002;-81
2021/10/25 12:00:48;;;;;;;3.92;1.42;;;;;;;17.48;46.75;102587.06;144994;588;5002;-81
2021/10/25 12:03:20;;;;;;;12.48;7.30;;;;;;;17.64;46.62;102588.41;144994;616;5003;-81
2021/10/25 12:05:47;;;;;;;13.93;8.80;;;;;;;17.64;45.22;102593.66;144994;581;5002;-81
2021/10/25 12:08:16;;;;;;;7.30;3.67;;;;;;;17.65;47.30;102592.81;144994;587;5002;-81
2021/10/25 12:10:45;;;;;;;4.32;2.45;;;;;;;17.76;46.69;102590.50;144994;564;5002;-80
2021/10/25 12:13:12;;;;;;;6.47;2.90;;;;;;;17.85;46.12;102582.91;144994;589;5002;-80
2021/10/25 12:15:47;;;;;;;3.80;2.40;;;;;;;18.01;47.37;102584.28;144994;583;5002;-81
2021/10/25 12:18:21;;;;;;;3.05;1.58;;;;;;;18.12;47.25;102587.22;144994;625;5002;-80
2021/10/25 12:20:49;;;;;;;4.07;1.45;;;;;;;18.10;46.94;102583.63;144994;579;5002;-81
2021/10/25 12:23:19;;;;;;;10.73;5.50;;;;;;;18.08;46.55;102586.22;144994;577;5002;-82
2021/10/25 12:26:13;;;;;;;7.47;3.67;;;;;;;17.97;45.95;102585.03;144994;569;5002;-81
2021/10/25 12:28:40;;;;;;;14.05;9.07;;;;;;;17.90;46.93;102590.97;144994;564;5002;-82
2021/10/25 12:31:13;;;;;;;5.60;2.15;;;;;;;17.87;45.64;102583.84;144994;577;5002;-83
2021/10/25 12:33:43;;;;;;;4.35;1.62;;;;;;;17.79;44.97;102587.09;144994;600;5002;-83
2021/10/25 12:36:15;;;;;;;4.57;1.33;;;;;;;17.79;46.04;102597.59;144994;586;5002;-82
2021/10/25 12:38:43;;;;;;;3.97;1.52;;;;;;;17.86;46.26;102584.66;144994;584;5002;-82
2021/10/25 12:41:10;;;;;;;6.97;3.95;;;;;;;17.89;45.88;102583.91;144994;626;5002;-81
2021/10/25 12:43:47;;;;;;;15.90;10.43;;;;;;;18.00;45.78;102573.72;144994;571;5002;-82
2021/10/25 12:46:19;;;;;;;5.80;2.20;;;;;;;17.95;45.62;102570.97;144994;573;5002;-82
2021/10/25 12:48:54;;;;;;;7.43;4.00;;;;;;;17.80;45.70;102575.72;144994;586;5002;-83
2021/10/25 12:51:23;;;;;;;3.80;1.80;;;;;;;17.80;45.01;102586.22;144994;602;5002;-81
2021/10/25 12:53:51;;;;;;;4.10;1.87;;;;;;;17.66;45.31;102578.84;144993;612;5002;-83
2021/10/25 12:56:28;;;;;;;2.67;1.87;;;;;;;17.52;45.53;102578.41;144994;628;5002;-79
2021/10/25 12:59:03;;;;;;;4.72;2.35;;;;;;;17.39;45.79;102571.91;144994;598;5002;-82
2021/10/25 13:01:35;;;;;;;6.75;1.35;;;;;;;17.31;42.92;102575.13;144994;607;5002;-81
2021/10/25 13:04:05;;;;;;;3.25;1.40;;;;;;;17.30;45.67;102576.84;144994;601;5002;-81
2021/10/25 13:06:35;;;;;;;2.87;1.42;;;;;;;17.27;44.27;102563.62;144994;579;5002;-81
2021/10/25 13:09:12;;;;;;;3.42;1.92;;;;;;;17.32;46.22;102563.78;144994;634;5002;-81
2021/10/25 13:11:39;;;;;;;3.33;1.60;;;;;;;17.36;45.96;102570.91;144994;576;5002;-81
2021/10/25 13:14:08;;;;;;;4.47;1.75;;;;;;;17.39;46.22;102576.25;144993;660;5002;-83
2021/10/25 13:16:46;;;;;;;4.68;1.42;;;;;;;17.45;46.56;102565.03;144994;646;5002;-80
2021/10/25 13:19:18;;;;;;;4.45;1.20;;;;;;;17.46;46.01;102564.22;144994;579;5002;-80
2021/10/25 13:21:46;;;;;;;4.10;1.30;;;;;;;17.47;46.19;102563.38;144994;589;5002;-79
2021/10/25 13:24:13;;;;;;;3.65;1.30;;;;;;;17.53;46.22;102558.28;144994;596;5002;-82
2021/10/25 13:26:42;;;;;;;5.82;2.28;;;;;;;17.56;44.96;102564.53;144994;564;5002;-84
2021/10/25 13:29:09;;;;;;;5.20;2.60;;;;;;;17.55;45.08;102557.50;144994;600;5002;-80